Strona główna
METAR-TAF:

METAR-TAF

Lotnisko :

Port lotniczy Newcastle

Newcastle, Anglia

Szerokość geograficzna: 55-02N, Długość geograficzna: 001-42W, wysokość: 81 m

Aktualna obserwacja pogody

Raport powstał 18 minut temu, godzina 22:50 UTC
Wiatr 12 kt od zachód
Temperatura 3°C
Wilgotność 93%
Ciśnienie 1012 hPa
Widzialność 10 km lub więcej
Brak chmur poniżej 1500 m i brak chmur cumulonimbus

METAR: EGNT 172250Z 26012KT CAVOK 03/02 Q1012

czas: 23:08 (23:08 UTC)

Prognoza

Raport powstał 6 godziny i 10 minut temu, godzina 16:58 UTC
Prognoza ważna od 17 godzina 18 UTC do 18 godzina 18 UTC
Wiatr 10 kt od zachód
Widzialność 10 km lub więcej
Rozproszone chmury na wysokości 3000 ft

TAF: EGNT 171658Z 1718/1818 26010KT 9999 SCT030

Obserwacja i prognoza pogody dla ponad 4000 lotnisk (raport METAR i TAF).

Dostępne stacje oznaczono żółtymi i czerwonymi punktami na mapie.

Najedź kursorem aby zobaczyć nazwę stacji.

Kliknij aby zobaczyć obserwacje i prognozy pogody.

Aby zmienić mapę: kliknij na zielony przycisk z czarnym krzyżykiem, aby powiększyć; na zielony przycisk z myślnikiem, aby pomniejszyć; na zielone strzałki, aby przejść do map sąsiednich.


METAR-TAF: